createdAt,value
2018-02-10T00:00:57.312Z,160.40
2018-02-10T00:04:59.870Z,159.77
2018-02-10T00:09:02.392Z,160.37
2018-02-10T00:13:05.069Z,164.97
2018-02-10T00:17:07.698Z,157.73
2018-02-10T00:21:10.297Z,166.87
2018-02-10T00:25:13.627Z,161.60
2018-02-10T00:29:16.229Z,171.67
2018-02-10T00:33:18.777Z,158.07
2018-02-10T00:37:22.094Z,165.27
2018-02-10T00:41:24.653Z,169.70
2018-02-10T00:45:27.209Z,153.57
2018-02-10T00:49:29.763Z,161.97
2018-02-10T00:53:32.303Z,162.30
2018-02-10T00:57:34.846Z,168.97
2018-02-10T01:01:37.375Z,168.43
2018-02-10T01:05:40.180Z,172.30
2018-02-10T01:09:44.061Z,172.63
2018-02-10T01:13:46.601Z,158.77
2018-02-10T01:17:49.149Z,174.57
2018-02-10T01:21:51.968Z,176.00
2018-02-10T01:25:55.253Z,163.63
2018-02-10T01:29:57.787Z,169.67
2018-02-10T01:34:00.301Z,170.97
2018-02-10T01:38:02.853Z,168.10
2018-02-10T01:42:05.377Z,168.00
2018-02-10T01:46:07.913Z,179.00
2018-02-10T01:50:21.183Z,165.00
2018-02-10T01:54:23.751Z,159.57
2018-02-10T01:58:26.293Z,165.40
2018-02-10T02:02:28.822Z,164.20
2018-02-10T02:06:31.352Z,174.80
2018-02-10T02:10:33.896Z,170.47
2018-02-10T02:14:36.403Z,168.43
2018-02-10T02:18:38.939Z,161.47
2018-02-10T02:22:42.227Z,165.10
2018-02-10T02:26:44.775Z,158.30
2018-02-10T02:30:47.302Z,161.07
2018-02-10T02:34:49.916Z,160.97
2018-02-10T02:38:53.188Z,158.33
2018-02-10T02:42:55.727Z,159.97
2018-02-10T02:46:58.253Z,168.50
2018-02-10T02:51:00.787Z,166.87
2018-02-10T02:55:03.320Z,176.03
2018-02-10T02:59:06.351Z,164.30
2018-02-10T03:03:09.625Z,170.43
2018-02-10T03:07:12.180Z,168.53
2018-02-10T03:11:14.691Z,159.67
2018-02-10T03:15:17.224Z,153.60
2018-02-10T03:19:19.759Z,166.37
2018-02-10T03:23:22.296Z,163.73
2018-02-10T03:27:24.809Z,155.90
2018-02-10T03:31:27.346Z,161.27
2018-02-10T03:35:29.888Z,165.43
2018-02-10T03:39:32.428Z,145.37
2018-02-10T03:43:35.745Z,160.10
2018-02-10T03:47:38.298Z,175.67
2018-02-10T03:51:40.823Z,176.67
2018-02-10T03:55:43.426Z,164.80
2018-02-10T03:59:45.941Z,163.63
2018-02-10T04:03:48.474Z,171.10
2018-02-10T04:07:50.989Z,176.53
2018-02-10T04:11:53.533Z,174.63
2018-02-10T04:15:56.814Z,157.97
2018-02-10T04:19:59.408Z,153.33
2018-02-10T04:24:01.931Z,172.13
2018-02-10T04:28:04.460Z,190.00
2018-02-10T04:32:06.992Z,185.00
2018-02-10T04:36:10.288Z,174.03
2018-02-10T04:40:13.573Z,185.10
2018-02-10T04:44:16.120Z,167.50
2018-02-10T04:48:18.648Z,157.20
2018-02-10T04:52:22.032Z,153.57
2018-02-10T04:56:24.552Z,148.57
2018-02-10T05:00:27.857Z,178.20
2018-02-10T05:04:31.142Z,158.97
2018-02-10T05:08:33.764Z,162.77
2018-02-10T05:12:36.952Z,156.00
2018-02-10T05:16:40.247Z,179.43
2018-02-10T05:20:43.534Z,172.60
2018-02-10T05:24:46.131Z,159.27
2018-02-10T05:28:48.634Z,156.40
2018-02-10T05:32:51.937Z,163.73
2018-02-10T05:36:55.203Z,162.17
2018-02-10T05:40:57.751Z,173.47
2018-02-10T05:45:00.260Z,171.87
2018-02-10T05:49:02.793Z,170.27
2018-02-10T05:53:06.142Z,181.80
2018-02-10T05:57:08.679Z,163.03
2018-02-10T06:01:11.963Z,171.73
2018-02-10T06:05:14.512Z,175.70
2018-02-10T06:09:17.010Z,174.53
2018-02-10T06:13:19.561Z,174.60
2018-02-10T06:17:22.093Z,170.70
2018-02-10T06:21:24.637Z,191.23
2018-02-10T06:25:27.207Z,184.37
2018-02-10T06:29:30.501Z,181.07
2018-02-10T06:33:34.350Z,172.10
2018-02-10T06:37:36.888Z,171.33
2018-02-10T06:41:39.490Z,176.83
2018-02-10T06:45:42.027Z,186.47
2018-02-10T06:49:44.566Z,178.60
2018-02-10T06:53:47.976Z,174.50
2018-02-10T06:57:51.255Z,168.37
2018-02-10T07:01:53.797Z,154.97
2018-02-10T07:05:56.316Z,157.83
2018-02-10T07:09:58.863Z,156.83
2018-02-10T07:14:01.373Z,161.97
2018-02-10T07:18:03.919Z,152.23
2018-02-10T07:22:06.425Z,141.27
2018-02-10T07:26:08.968Z,143.63
2018-02-10T07:30:11.480Z,136.97
2018-02-10T07:34:14.790Z,134.43
2018-02-10T07:38:17.417Z,141.73
2018-02-10T07:42:19.951Z,134.73
2018-02-10T07:46:23.256Z,136.83
2018-02-10T07:50:25.804Z,131.77
2018-02-10T07:54:28.355Z,135.10
2018-02-10T07:58:30.876Z,133.80
2018-02-10T08:02:33.442Z,122.43
2018-02-10T08:06:35.955Z,117.23
2018-02-10T08:10:38.489Z,116.03
2018-02-10T08:14:41.001Z,106.07
2018-02-10T08:18:44.309Z,107.53
2018-02-10T08:22:46.817Z,108.77
2018-02-10T08:26:49.352Z,105.10
2018-02-10T08:30:51.856Z,112.80
2018-02-10T08:34:54.393Z,110.27
2018-02-10T08:38:57.667Z,110.50
2018-02-10T08:43:00.193Z,100.10
2018-02-10T08:47:03.462Z,95.03
2018-02-10T08:51:06.768Z,98.80
2018-02-10T08:55:09.297Z,97.00
2018-02-10T08:59:11.828Z,95.00
2018-02-10T09:03:14.351Z,99.73
2018-02-10T09:07:17.640Z,103.17
2018-02-10T09:11:20.172Z,98.27
2018-02-10T09:15:22.712Z,106.87
2018-02-10T09:19:25.215Z,105.67
2018-02-10T09:23:28.513Z,103.50
2018-02-10T09:27:31.803Z,112.93
2018-02-10T09:31:34.334Z,106.73
2018-02-10T09:35:36.872Z,112.00
2018-02-10T09:39:39.418Z,108.43
2018-02-10T09:43:42.001Z,112.70
2018-02-10T09:47:44.540Z,111.53
2018-02-10T09:51:47.812Z,109.47
2018-02-10T09:55:50.346Z,111.20
2018-02-10T09:59:53.629Z,107.63
2018-02-10T10:03:56.944Z,106.63
2018-02-10T10:08:00.231Z,106.77
2018-02-10T10:12:02.766Z,109.37
2018-02-10T10:16:05.282Z,108.20
2018-02-10T10:20:07.816Z,111.37
2018-02-10T10:24:11.302Z,107.27
2018-02-10T10:28:13.848Z,105.17
2018-02-10T10:32:16.351Z,101.97
2018-02-10T10:36:18.926Z,111.13
2018-02-10T10:40:21.414Z,103.13
2018-02-10T10:44:23.940Z,109.00
2018-02-10T10:48:27.822Z,111.20
2018-02-10T10:52:31.091Z,107.70
2018-02-10T10:56:33.623Z,104.60
2018-02-10T11:00:36.191Z,99.53
2018-02-10T11:04:38.762Z,100.00
2018-02-10T11:08:41.302Z,104.60
2018-02-10T11:12:44.605Z,99.10
2018-02-10T11:16:47.891Z,97.60
2018-02-10T11:20:50.451Z,104.60
2018-02-10T11:24:52.963Z,100.73
2018-02-10T11:28:55.779Z,95.30
2018-02-10T11:32:59.056Z,94.03
2018-02-10T11:37:01.589Z,92.53
2018-02-10T11:41:04.121Z,94.47
2018-02-10T11:45:06.674Z,91.63
2018-02-10T11:49:09.225Z,95.27
2018-02-10T11:53:12.528Z,84.60
2018-02-10T11:57:15.823Z,88.60
2018-02-10T12:01:18.373Z,87.60
2018-02-10T12:05:20.911Z,85.77
2018-02-10T12:09:24.206Z,85.83
2018-02-10T12:13:27.549Z,89.73
2018-02-10T12:17:30.061Z,88.97
2018-02-10T12:21:32.596Z,86.80
2018-02-10T12:25:35.890Z,85.17
2018-02-10T12:29:39.175Z,79.17
2018-02-10T12:33:41.783Z,78.27
2018-02-10T12:37:45.065Z,85.27
2018-02-10T12:41:47.609Z,83.50
2018-02-10T12:45:50.159Z,82.10
2018-02-10T12:49:53.433Z,79.50
2018-02-10T12:53:55.981Z,77.10
2018-02-10T12:57:58.507Z,77.70
2018-02-10T13:02:01.061Z,76.37
2018-02-10T13:06:03.638Z,73.47
2018-02-10T13:10:06.990Z,74.10
2018-02-10T13:14:09.494Z,72.60
2018-02-10T13:18:12.787Z,73.93
2018-02-10T13:22:15.304Z,69.43
2018-02-10T13:26:17.871Z,71.73
2018-02-10T13:30:21.147Z,71.80
2018-02-10T13:34:24.604Z,72.90
2018-02-10T13:38:27.115Z,68.37
2018-02-10T13:42:29.658Z,71.43
2018-02-10T13:46:32.942Z,68.53
2018-02-10T13:50:35.473Z,71.67
2018-02-10T13:54:38.008Z,76.03
2018-02-10T13:58:40.545Z,70.97
2018-02-10T14:02:43.071Z,75.23
2018-02-10T14:06:45.604Z,69.03
2018-02-10T14:10:48.117Z,76.77
2018-02-10T14:14:50.648Z,80.60
2018-02-10T14:18:54.170Z,73.77
2018-02-10T14:22:57.470Z,75.30
2018-02-10T14:27:00.757Z,71.37
2018-02-10T14:31:03.569Z,74.50
2018-02-10T14:35:06.843Z,72.63
2018-02-10T14:39:09.373Z,72.87
2018-02-10T14:43:11.875Z,74.07
2018-02-10T14:47:14.405Z,69.00
2018-02-10T14:51:16.949Z,76.40
2018-02-10T14:55:19.492Z,73.03
2018-02-10T14:59:22.789Z,84.27
2018-02-10T15:03:25.331Z,78.00
2018-02-10T15:07:27.870Z,79.77
2018-02-10T15:11:31.172Z,78.20
2018-02-10T15:15:34.442Z,80.33
2018-02-10T15:19:36.966Z,75.63
2018-02-10T15:23:40.263Z,77.17
2018-02-10T15:27:43.571Z,76.53
2018-02-10T15:31:58.775Z,78.47
2018-02-10T15:36:01.312Z,72.57
2018-02-10T15:40:03.816Z,77.67
2018-02-10T15:44:06.364Z,81.10
2018-02-10T15:48:08.871Z,77.10
2018-02-10T15:52:11.421Z,73.70
2018-02-10T15:56:13.952Z,73.77
2018-02-10T16:00:16.494Z,70.00
2018-02-10T16:04:19.109Z,64.17
2018-02-10T16:08:21.628Z,63.33
2018-02-10T16:12:24.903Z,62.50
2018-02-10T16:16:27.448Z,63.93
2018-02-10T16:20:30.013Z,56.67
2018-02-10T16:24:32.622Z,64.47
2018-02-10T16:28:35.142Z,60.07
2018-02-10T16:32:37.673Z,65.60
2018-02-10T16:36:41.002Z,63.57
2018-02-10T16:40:43.625Z,62.83
2018-02-10T16:44:46.880Z,60.13
2018-02-10T16:48:50.390Z,63.50
2018-02-10T16:52:52.924Z,61.47
2018-02-10T16:56:55.459Z,67.10
2018-02-10T17:00:58.039Z,71.47
2018-02-10T17:05:00.582Z,65.90
2018-02-10T17:09:03.143Z,76.90
2018-02-10T17:13:05.663Z,67.47
2018-02-10T17:17:08.190Z,75.57
2018-02-10T17:21:10.712Z,76.03
2018-02-10T17:25:13.249Z,75.57
2018-02-10T17:29:16.546Z,73.37
2018-02-10T17:33:19.854Z,76.60
2018-02-10T17:37:23.166Z,76.93
2018-02-10T17:41:25.760Z,70.17
2018-02-10T17:45:28.636Z,69.40
2018-02-10T17:49:31.949Z,74.07
2018-02-10T17:53:34.495Z,68.30
2018-02-10T17:57:37.992Z,71.63
2018-02-10T18:01:43.416Z,67.00
2018-02-10T18:05:46.035Z,68.70
2018-02-10T18:09:48.558Z,67.17
2018-02-10T18:13:52.669Z,66.57
2018-02-10T18:17:55.219Z,65.20
2018-02-10T18:21:57.792Z,69.57
2018-02-10T18:26:00.350Z,69.13
2018-02-10T18:30:03.663Z,63.03
2018-02-10T18:34:06.209Z,60.30
2018-02-10T18:38:08.751Z,67.17
2018-02-10T18:42:11.302Z,62.40
2018-02-10T18:46:14.615Z,63.60
2018-02-10T18:50:17.958Z,62.57
2018-02-10T18:54:20.585Z,63.23
2018-02-10T18:58:24.700Z,61.57
2018-02-10T19:02:27.237Z,61.87
2018-02-10T19:06:29.753Z,63.30
2018-02-10T19:10:32.303Z,62.50
2018-02-10T19:14:34.822Z,66.07
2018-02-10T19:18:37.364Z,61.77
2018-02-10T19:22:39.916Z,63.47
2018-02-10T19:26:42.446Z,62.13
2018-02-10T19:30:44.996Z,66.57
2018-02-10T19:34:47.539Z,66.30
2018-02-10T19:38:50.078Z,61.23
2018-02-10T19:42:52.641Z,63.30
2018-02-10T19:46:55.174Z,64.60
2018-02-10T19:51:01.133Z,64.20
2018-02-10T19:55:04.412Z,62.00
2018-02-10T19:59:06.970Z,61.13
2018-02-10T20:03:09.481Z,64.17
2018-02-10T20:07:12.055Z,65.20
2018-02-10T20:15:25.166Z,59.00
2018-02-10T20:19:27.719Z,63.60
2018-02-10T21:52:13.126Z,81.43
2018-02-10T22:00:25.275Z,81.23
2018-02-10T22:08:38.173Z,89.50
2018-02-10T22:12:40.680Z,92.40
2018-02-10T22:16:43.211Z,91.13
2018-02-10T22:20:45.742Z,91.50
2018-02-10T22:24:48.274Z,100.73
2018-02-10T22:28:50.863Z,99.27
2018-02-10T22:32:53.393Z,88.23
2018-02-10T22:36:55.904Z,91.60
2018-02-10T22:40:59.220Z,97.60
2018-02-10T22:45:01.748Z,101.83
2018-02-10T22:49:04.293Z,105.97
2018-02-10T22:53:06.808Z,99.97
2018-02-10T22:57:09.336Z,89.03
2018-02-10T23:01:16.566Z,111.70
2018-02-10T23:05:19.114Z,95.03
2018-02-10T23:09:21.777Z,91.90
2018-02-10T23:13:24.300Z,88.63
2018-02-10T23:17:26.852Z,86.43
2018-02-10T23:21:29.418Z,85.47
2018-02-10T23:25:31.927Z,83.17
2018-02-10T23:29:34.457Z,80.37
2018-02-10T23:33:37.755Z,85.50
2018-02-10T23:37:41.067Z,88.13
2018-02-10T23:41:44.378Z,85.43
2018-02-10T23:45:46.895Z,82.60
2018-02-10T23:49:49.398Z,76.27
2018-02-10T23:53:51.938Z,85.90
2018-02-10T23:57:54.453Z,88.33
